Time;durP1;ratioP1;P1;durP2;ratioP2;P2;SDS_P1;SDS_P2;PMS_P1;PMS_P2;Temp;Humidity;BMP_temperature;BMP_pressure;BME280_temperature;BME280_humidity;BME280_pressure;Samples;Min_cycle;Max_cycle;Signal;HPM_P1;HPM_P2
2022/01/28 00:00:14;;;;;;;;;;;15.50;33.40;;;;;;8331531;28;19917;-54
2022/01/28 00:04:17;;;;;;;;;;;15.50;33.40;;;;;;8330352;28;19931;-55
2022/01/28 00:08:17;;;;;;;;;;;15.50;33.40;;;;;;8331101;28;19917;-55
2022/01/28 00:12:17;;;;;;;;;;;15.50;33.40;;;;;;8330894;28;20369;-56
2022/01/28 00:41:57;;;;;;;;;;;15.50;33.50;;;;;;8330481;28;19920;-57
2022/01/28 00:45:57;;;;;;;;;;;15.50;33.50;;;;;;8329728;28;19929;-54
2022/01/28 00:49:58;;;;;;;;;;;15.50;33.50;;;;;;8329971;28;20012;-53
2022/01/28 00:53:58;;;;;;;;;;;15.50;33.50;;;;;;8329987;28;20294;-55
2022/01/28 00:57:58;;;;;;;;;;;15.40;33.50;;;;;;8329438;28;20335;-54
2022/01/28 01:01:59;;;;;;;;;;;15.40;34.10;;;;;;8330125;28;20309;-53
2022/01/28 01:05:59;;;;;;;;;;;15.40;33.60;;;;;;8329462;28;19931;-54
2022/01/28 01:10:00;;;;;;;;;;;15.40;33.60;;;;;;8329107;28;19923;-56
2022/01/28 01:14:01;;;;;;;;;;;15.40;33.60;;;;;;8329888;28;19918;-58
2022/01/28 01:18:13;;;;;;;;;;;15.40;33.60;;;;;;8329298;28;19913;-56
2022/01/28 01:22:13;;;;;;;;;;;15.40;33.70;;;;;;8331056;28;20389;-56
2022/01/28 01:26:14;;;;;;;;;;;15.40;33.70;;;;;;8330066;28;19921;-55
2022/01/28 01:30:17;;;;;;;;;;;15.40;33.70;;;;;;8319082;28;19946;-56
2022/01/28 01:34:21;;;;;;;;;;;15.40;33.70;;;;;;8328816;28;19924;-55
2022/01/28 01:38:25;;;;;;;;;;;15.30;33.60;;;;;;8329496;28;20008;-53
2022/01/28 01:42:43;;;;;;;;;;;15.30;33.70;;;;;;8329472;28;20271;-54
2022/01/28 01:47:10;;;;;;;;;;;15.40;33.70;;;;;;8329091;28;19931;-52
2022/01/28 01:55:33;;;;;;;;;;;15.40;33.70;;;;;;8331715;28;19987;-56
2022/01/28 01:59:33;;;;;;;;;;;15.40;33.70;;;;;;8334907;28;20004;-54
2022/01/28 02:03:34;;;;;;;;;;;15.40;33.60;;;;;;8334100;28;20346;-54
2022/01/28 02:07:34;;;;;;;;;;;15.50;33.70;;;;;;8334297;28;19921;-53
2022/01/28 02:11:35;;;;;;;;;;;15.50;33.70;;;;;;8335135;28;19917;-56
2022/01/28 02:15:35;;;;;;;;;;;15.40;33.60;;;;;;8334537;28;20379;-58
2022/01/28 02:19:36;;;;;;;;;;;15.50;33.60;;;;;;8333720;28;19921;-52
2022/01/28 02:23:37;;;;;;;;;;;15.50;33.60;;;;;;8334014;28;19917;-54
2022/01/28 02:27:38;;;;;;;;;;;15.50;33.60;;;;;;8316470;28;19935;-55
2022/01/28 02:31:38;;;;;;;;;;;15.50;33.60;;;;;;8333726;28;20277;-52
2022/01/28 02:35:41;;;;;;;;;;;15.50;33.60;;;;;;8334093;28;20018;-54
2022/01/28 02:39:42;;;;;;;;;;;15.50;33.60;;;;;;8333808;28;19969;-54
2022/01/28 02:43:56;;;;;;;;;;;15.50;33.60;;;;;;8333059;28;20380;-54
2022/01/28 02:48:13;;;;;;;;;;;15.50;33.60;;;;;;8336852;28;19921;-55
2022/01/28 02:52:21;;;;;;;;;;;15.50;33.60;;;;;;8332967;28;19949;-54
2022/01/28 03:00:31;;;;;;;;;;;15.50;33.60;;;;;;8332960;28;19943;-52
2022/01/28 03:08:33;;;;;;;;;;;15.40;33.60;;;;;;8332064;28;19913;-49
2022/01/28 03:12:47;;;;;;;;;;;15.40;33.60;;;;;;8332759;28;19991;-55
2022/01/28 03:17:29;;;;;;;;;;;15.40;33.70;;;;;;8331700;28;21315;-52
2022/01/28 03:21:37;;;;;;;;;;;15.40;33.70;;;;;;8329991;28;19924;-54
2022/01/28 03:25:43;;;;;;;;;;;15.40;33.70;;;;;;8331940;28;19971;-54
2022/01/28 03:29:43;;;;;;;;;;;15.40;33.80;;;;;;8332074;28;19917;-52
2022/01/28 03:33:44;;;;;;;;;;;15.40;33.70;;;;;;8332002;28;19913;-53
2022/01/28 03:37:44;;;;;;;;;;;15.40;33.80;;;;;;8331466;28;20278;-51
2022/01/28 03:41:45;;;;;;;;;;;15.40;33.80;;;;;;8332182;28;19921;-56
2022/01/28 03:45:45;;;;;;;;;;;15.40;33.70;;;;;;8331613;28;19933;-51
2022/01/28 03:49:46;;;;;;;;;;;15.40;33.70;;;;;;8330717;28;19971;-55
2022/01/28 03:53:47;;;;;;;;;;;15.40;33.60;;;;;;8331216;28;20025;-50
2022/01/28 03:57:47;;;;;;;;;;;15.50;33.70;;;;;;8330962;28;20369;-51
2022/01/28 04:01:49;;;;;;;;;;;15.40;33.60;;;;;;8330925;28;20311;-50
2022/01/28 04:18:24;;;;;;;;;;;15.50;33.60;;;;;;8330641;28;20366;-54
2022/01/28 04:22:25;;;;;;;;;;;15.50;33.60;;;;;;8330527;28;19921;-54
2022/01/28 04:26:26;;;;;;;;;;;15.50;33.60;;;;;;8330611;28;19925;-52
2022/01/28 04:30:26;;;;;;;;;;;15.50;33.60;;;;;;8330401;28;19924;-54
2022/01/28 04:34:27;;;;;;;;;;;15.50;33.60;;;;;;8329842;28;19917;-51
2022/01/28 04:38:39;;;;;;;;;;;15.50;33.60;;;;;;8330264;28;20103;-54
2022/01/28 04:42:55;;;;;;;;;;;15.50;33.70;;;;;;8333519;28;19921;-54
2022/01/28 04:47:10;;;;;;;;;;;15.40;33.60;;;;;;8330005;28;19929;-54
2022/01/28 04:59:37;;;;;;;;;;;15.50;33.70;;;;;;8329641;28;19918;-54
2022/01/28 05:28:55;;;;;;;;;;;15.40;33.60;;;;;;8329668;28;19918;-54
2022/01/28 05:32:56;;;;;;;;;;;15.40;33.60;;;;;;8335611;28;19921;-54
2022/01/28 05:36:56;;;;;;;;;;;15.40;33.60;;;;;;8335322;28;19917;-50
2022/01/28 05:40:56;;;;;;;;;;;15.40;33.60;;;;;;8335665;28;19955;-50
2022/01/28 05:44:57;;;;;;;;;;;15.40;33.60;;;;;;8335333;28;19925;-50
2022/01/28 05:48:58;;;;;;;;;;;15.40;33.60;;;;;;8334863;28;20018;-52
2022/01/28 05:53:00;;;;;;;;;;;15.40;33.60;;;;;;8335613;28;19913;-55
2022/01/28 05:57:01;;;;;;;;;;;15.30;33.60;;;;;;8335244;28;20283;-52
2022/01/28 06:01:01;;;;;;;;;;;15.30;33.60;;;;;;8334702;28;19921;-55
2022/01/28 06:05:02;;;;;;;;;;;15.30;33.60;;;;;;8334762;28;19925;-54
2022/01/28 06:09:03;;;;;;;;;;;15.30;33.60;;;;;;8334571;28;20070;-50
2022/01/28 06:13:05;;;;;;;;;;;15.30;33.60;;;;;;8316903;28;20293;-52
2022/01/28 06:17:05;;;;;;;;;;;15.30;33.60;;;;;;8334455;28;19917;-52
2022/01/28 06:21:06;;;;;;;;;;;15.30;33.60;;;;;;8334209;28;19939;-52
2022/01/28 06:25:07;;;;;;;;;;;15.30;33.60;;;;;;8333556;28;19927;-50
2022/01/28 06:29:08;;;;;;;;;;;15.30;33.60;;;;;;8333933;28;20007;-54
2022/01/28 06:33:10;;;;;;;;;;;15.40;33.70;;;;;;8334381;28;19921;-51
2022/01/28 06:37:11;;;;;;;;;;;15.40;33.60;;;;;;8333344;28;20378;-50
2022/01/28 06:41:11;;;;;;;;;;;15.40;33.50;;;;;;8333735;28;19917;-52
2022/01/28 06:45:12;;;;;;;;;;;15.40;33.50;;;;;;8333383;28;19921;-51
2022/01/28 06:49:12;;;;;;;;;;;15.40;33.50;;;;;;8332953;28;19917;-53
2022/01/28 06:53:13;;;;;;;;;;;15.40;33.50;;;;;;8333574;28;19920;-49
2022/01/28 06:57:14;;;;;;;;;;;15.50;33.50;;;;;;8333227;28;19940;-50
2022/01/28 07:01:14;;;;;;;;;;;15.50;33.50;;;;;;8332641;28;19918;-54
2022/01/28 07:05:15;;;;;;;;;;;15.50;33.50;;;;;;8333089;28;20015;-51
2022/01/28 07:09:16;;;;;;;;;;;15.50;33.50;;;;;;8332635;28;19921;-52
2022/01/28 07:13:17;;;;;;;;;;;15.50;33.50;;;;;;8332458;28;20400;-51
2022/01/28 07:17:17;;;;;;;;;;;15.50;33.50;;;;;;8332794;28;19917;-54
2022/01/28 07:21:18;;;;;;;;;;;15.50;33.50;;;;;;8332494;28;19983;-53
2022/01/28 07:25:18;;;;;;;;;;;15.50;33.50;;;;;;8331715;28;19960;-51
2022/01/28 07:29:20;;;;;;;;;;;15.50;33.60;;;;;;8332109;28;20011;-50
2022/01/28 07:33:20;;;;;;;;;;;15.50;33.60;;;;;;8332329;28;19960;-52
2022/01/28 07:37:21;;;;;;;;;;;15.40;33.50;;;;;;8331453;28;19917;-53
2022/01/28 07:41:21;;;;;;;;;;;15.40;33.60;;;;;;8331458;28;19924;-54
2022/01/28 07:45:22;;;;;;;;;;;15.40;33.60;;;;;;8331280;28;20024;-50
2022/01/28 07:49:22;;;;;;;;;;;15.40;33.60;;;;;;8330944;28;20393;-53
2022/01/28 07:53:22;;;;;;;;;;;15.40;33.60;;;;;;8330910;28;20370;-50
2022/01/28 07:57:23;;;;;;;;;;;15.40;33.60;;;;;;8313455;28;19956;-51
2022/01/28 08:01:23;;;;;;;;;;;15.30;33.50;;;;;;8330565;28;19975;-50
2022/01/28 08:05:24;;;;;;;;;;;15.40;33.60;;;;;;8330561;28;19929;-52
2022/01/28 08:09:24;;;;;;;;;;;15.40;33.60;;;;;;8330102;28;20016;-54
2022/01/28 08:13:25;;;;;;;;;;;15.30;33.60;;;;;;8330489;28;19958;-54
2022/01/28 08:17:25;;;;;;;;;;;15.40;33.60;;;;;;8343542;28;20003;-53
2022/01/28 08:21:25;;;;;;;;;;;15.40;33.60;;;;;;8330542;28;19917;-51
2022/01/28 08:25:27;;;;;;;;;;;15.40;33.60;;;;;;8329876;28;19971;-51
2022/01/28 08:29:27;;;;;;;;;;;15.40;33.70;;;;;;8330361;28;19920;-54
2022/01/28 08:33:28;;;;;;;;;;;15.40;33.70;;;;;;8330474;28;19917;-51
2022/01/28 08:37:28;;;;;;;;;;;15.40;33.70;;;;;;8329773;28;19948;-54
2022/01/28 08:41:30;;;;;;;;;;;15.40;33.70;;;;;;8330337;28;20354;-52
2022/01/28 08:45:31;;;;;;;;;;;15.40;33.70;;;;;;8329947;28;19968;-53
2022/01/28 08:49:31;;;;;;;;;;;15.40;33.80;;;;;;8312093;28;19917;-54
2022/01/28 08:53:32;;;;;;;;;;;15.40;33.70;;;;;;8329970;28;20382;-53
2022/01/28 08:57:33;;;;;;;;;;;15.40;33.70;;;;;;8329805;28;19924;-54
2022/01/28 09:01:33;;;;;;;;;;;15.40;33.70;;;;;;8329247;28;20350;-54
2022/01/28 09:05:34;;;;;;;;;;;15.50;33.70;;;;;;8334053;28;19925;-50
2022/01/28 09:09:35;;;;;;;;;;;15.50;33.70;;;;;;8336666;28;19913;-55
2022/01/28 09:13:38;;;;;;;;;;;15.50;33.70;;;;;;8335765;28;19928;-56
2022/01/28 09:17:39;;;;;;;;;;;15.50;33.70;;;;;;8336196;28;19975;-53
2022/01/28 09:21:39;;;;;;;;;;;15.50;33.70;;;;;;8336069;28;20380;-53
2022/01/28 09:25:40;;;;;;;;;;;15.60;33.80;;;;;;8335245;28;19925;-48
2022/01/28 09:29:40;;;;;;;;;;;15.60;33.70;;;;;;8335847;28;19913;-54
2022/01/28 09:33:41;;;;;;;;;;;15.60;33.70;;;;;;8335469;28;19997;-54
2022/01/28 09:37:41;;;;;;;;;;;15.60;33.70;;;;;;8334936;28;19921;-54
2022/01/28 09:41:45;;;;;;;;;;;15.60;33.70;;;;;;8335269;28;20004;-53
2022/01/28 09:45:48;;;;;;;;;;;15.60;33.70;;;;;;8335099;28;19929;-55
2022/01/28 09:49:48;;;;;;;;;;;15.60;33.70;;;;;;8334916;28;19913;-53
2022/01/28 09:53:49;;;;;;;;;;;15.60;33.70;;;;;;8334929;28;19927;-54
2022/01/28 09:57:54;;;;;;;;;;;15.60;33.70;;;;;;8334151;28;19917;-55
2022/01/28 10:01:55;;;;;;;;;;;15.60;33.70;;;;;;8334709;28;19924;-54
2022/01/28 10:05:57;;;;;;;;;;;15.60;33.70;;;;;;8334331;28;19925;-53
2022/01/28 10:09:58;;;;;;;;;;;15.60;33.80;;;;;;8334324;28;19953;-53
2022/01/28 10:14:05;;;;;;;;;;;15.60;33.80;;;;;;8334595;28;19924;-53
2022/01/28 10:18:06;;;;;;;;;;;15.60;33.80;;;;;;8338914;28;20289;-54
2022/01/28 10:22:16;;;;;;;;;;;15.60;33.80;;;;;;8333981;28;19924;-54
2022/01/28 10:26:17;;;;;;;;;;;15.60;33.90;;;;;;8334194;28;20309;-54
2022/01/28 10:30:18;;;;;;;;;;;15.60;33.80;;;;;;8334032;28;19918;-54
2022/01/28 10:34:23;;;;;;;;;;;15.60;33.90;;;;;;8333583;28;19917;-53
2022/01/28 10:38:42;;;;;;;;;;;15.60;33.90;;;;;;8333793;28;19917;-53
2022/01/28 10:42:51;;;;;;;;;;;15.70;34.40;;;;;;8333690;28;19917;-52
2022/01/28 10:46:54;;;;;;;;;;;15.60;33.90;;;;;;8332963;28;20451;-55
2022/01/28 10:50:57;;;;;;;;;;;15.70;33.90;;;;;;8333509;28;19925;-55
2022/01/28 10:54:58;;;;;;;;;;;15.70;34.00;;;;;;8332795;28;19957;-56
2022/01/28 10:58:58;;;;;;;;;;;15.70;33.90;;;;;;8333471;28;19941;-52
2022/01/28 11:03:00;;;;;;;;;;;15.60;33.90;;;;;;8331667;28;19921;-55
2022/01/28 11:07:01;;;;;;;;;;;15.60;33.90;;;;;;8299690;28;20341;-55
2022/01/28 11:11:02;;;;;;;;;;;15.60;33.90;;;;;;8299964;28;19972;-54
2022/01/28 11:15:02;;;;;;;;;;;15.70;34.00;;;;;;8300220;28;19997;-55
2022/01/28 11:19:04;;;;;;;;;;;15.70;33.90;;;;;;8299158;28;19972;-55
2022/01/28 11:23:22;;;;;;;;;;;15.70;33.90;;;;;;8299961;28;19917;-54
2022/01/28 11:27:25;;;;;;;;;;;15.70;33.90;;;;;;8298346;28;19925;-53
2022/01/28 11:31:44;;;;;;;;;;;15.70;34.00;;;;;;8298761;28;19941;-55
2022/01/28 11:35:54;;;;;;;;;;;15.70;34.00;;;;;;8299364;28;19918;-55
2022/01/28 11:40:05;;;;;;;;;;;15.70;34.00;;;;;;8298844;28;19917;-55
2022/01/28 11:44:05;;;;;;;;;;;15.70;34.00;;;;;;8298912;28;19918;-54
2022/01/28 11:48:06;;;;;;;;;;;15.70;34.00;;;;;;8298814;28;19924;-56
2022/01/28 11:52:20;;;;;;;;;;;15.70;34.10;;;;;;8298431;28;19963;-55
2022/01/28 11:56:27;;;;;;;;;;;15.70;34.00;;;;;;8298536;28;19924;-53
2022/01/28 12:00:42;;;;;;;;;;;15.70;34.10;;;;;;8298578;28;19917;-52
2022/01/28 12:04:43;;;;;;;;;;;15.70;34.60;;;;;;8297730;28;19979;-53
2022/01/28 12:08:45;;;;;;;;;;;15.70;34.00;;;;;;8298233;28;19925;-54
2022/01/28 12:12:49;;;;;;;;;;;15.70;34.00;;;;;;8298181;28;19918;-53
2022/01/28 12:16:50;;;;;;;;;;;15.80;34.10;;;;;;8297637;28;19917;-55
2022/01/28 12:20:51;;;;;;;;;;;15.80;34.10;;;;;;8298130;28;20441;-55
2022/01/28 12:24:51;;;;;;;;;;;15.80;34.10;;;;;;8298179;28;19933;-55
2022/01/28 12:28:53;;;;;;;;;;;15.80;34.10;;;;;;8297130;28;20012;-54
2022/01/28 12:32:58;;;;;;;;;;;15.80;34.10;;;;;;8297797;28;19922;-53
2022/01/28 12:36:59;;;;;;;;;;;15.80;34.10;;;;;;8297241;28;20309;-54
2022/01/28 12:41:07;;;;;;;;;;;15.80;34.10;;;;;;8297825;28;19922;-54
2022/01/28 12:45:07;;;;;;;;;;;15.80;34.10;;;;;;8297860;28;20060;-53
2022/01/28 12:49:09;;;;;;;;;;;15.80;34.10;;;;;;8296819;28;19921;-54
2022/01/28 12:53:10;;;;;;;;;;;15.80;34.10;;;;;;8297509;28;20290;-55
2022/01/28 12:57:12;;;;;;;;;;;15.80;34.10;;;;;;8297037;28;19917;-54
2022/01/28 13:01:13;;;;;;;;;;;15.80;34.20;;;;;;8297102;28;19997;-54
2022/01/28 13:05:15;;;;;;;;;;;15.80;34.20;;;;;;8297162;28;19932;-54
2022/01/28 13:09:20;;;;;;;;;;;15.80;34.20;;;;;;8279565;28;19956;-55
2022/01/28 13:13:21;;;;;;;;;;;15.80;34.20;;;;;;8296370;28;19924;-52
2022/01/28 13:17:23;;;;;;;;;;;15.80;34.20;;;;;;8296719;28;19921;-54
2022/01/28 13:21:24;;;;;;;;;;;15.80;34.20;;;;;;8296998;28;19917;-53
2022/01/28 13:25:25;;;;;;;;;;;15.80;34.20;;;;;;8296453;28;19981;-54
2022/01/28 13:29:32;;;;;;;;;;;15.80;34.20;;;;;;8293844;28;19918;-55
2022/01/28 13:33:33;;;;;;;;;;;15.80;34.20;;;;;;8296830;28;20369;-55
2022/01/28 13:37:44;;;;;;;;;;;15.80;34.20;;;;;;8296195;28;19921;-53
2022/01/28 13:41:47;;;;;;;;;;;15.80;34.20;;;;;;8296956;28;20439;-55
2022/01/28 13:45:54;;;;;;;;;;;15.80;34.20;;;;;;8296665;28;19932;-54
2022/01/28 13:49:58;;;;;;;;;;;15.80;34.20;;;;;;8329059;28;20432;-53
2022/01/28 13:54:20;;;;;;;;;;;15.80;34.20;;;;;;8334911;28;19917;-54
2022/01/28 13:58:20;;;;;;;;;;;15.80;34.20;;;;;;8333990;28;20313;-55
2022/01/28 14:02:21;;;;;;;;;;;15.80;34.30;;;;;;8335203;28;19917;-55
2022/01/28 14:06:23;;;;;;;;;;;15.80;34.20;;;;;;8334250;28;19929;-53
2022/01/28 14:10:23;;;;;;;;;;;15.80;34.30;;;;;;8334085;28;19917;-53
2022/01/28 14:14:28;;;;;;;;;;;15.80;34.20;;;;;;8334581;28;20378;-54
2022/01/28 14:18:29;;;;;;;;;;;15.80;34.20;;;;;;8334417;28;19961;-53
2022/01/28 14:22:29;;;;;;;;;;;15.80;34.20;;;;;;8333807;28;19921;-51
2022/01/28 14:26:30;;;;;;;;;;;15.80;34.30;;;;;;8334180;28;20309;-54
2022/01/28 14:30:39;;;;;;;;;;;15.80;34.30;;;;;;8334126;28;20004;-56
2022/01/28 14:34:40;;;;;;;;;;;15.80;34.20;;;;;;8333422;28;19921;-55
2022/01/28 14:38:42;;;;;;;;;;;15.80;34.20;;;;;;8333755;28;20285;-54
2022/01/28 14:42:43;;;;;;;;;;;15.80;34.20;;;;;;8333784;28;19925;-55
2022/01/28 14:46:44;;;;;;;;;;;15.80;34.20;;;;;;8333284;28;19921;-52
2022/01/28 14:50:45;;;;;;;;;;;15.90;34.30;;;;;;8333334;28;19917;-54
2022/01/28 14:54:46;;;;;;;;;;;15.80;34.30;;;;;;8315634;28;20293;-55
2022/01/28 14:58:46;;;;;;;;;;;15.80;34.30;;;;;;8332729;28;19929;-54
2022/01/28 15:02:47;;;;;;;;;;;15.80;34.30;;;;;;8332614;28;20012;-55
2022/01/28 15:06:48;;;;;;;;;;;15.80;34.30;;;;;;8333231;28;19948;-55
2022/01/28 15:10:48;;;;;;;;;;;15.80;34.60;;;;;;8330293;28;19923;-55
2022/01/28 15:14:49;;;;;;;;;;;15.80;34.30;;;;;;8332516;28;20020;-55
2022/01/28 15:18:49;;;;;;;;;;;15.80;34.30;;;;;;8332525;28;19921;-55
2022/01/28 15:22:50;;;;;;;;;;;15.80;34.30;;;;;;8331862;28;20394;-53
2022/01/28 15:26:51;;;;;;;;;;;15.80;34.30;;;;;;8332557;28;20381;-53
2022/01/28 15:35:37;;;;;;;;;;;15.80;34.30;;;;;;8331522;28;19975;-55
2022/01/28 15:39:35;;;;;;;;;;;15.80;34.30;;;;;;8331678;28;19917;-54
2022/01/28 15:43:36;;;;;;;;;;;15.80;34.30;;;;;;8331431;28;19946;-53
2022/01/28 15:47:36;;;;;;;;;;;15.80;34.30;;;;;;8331592;28;19952;-53
2022/01/28 15:51:37;;;;;;;;;;;15.80;34.30;;;;;;8331882;28;19925;-53
2022/01/28 15:55:37;;;;;;;;;;;15.80;34.30;;;;;;8330953;28;19917;-51
2022/01/28 15:59:38;;;;;;;;;;;15.80;34.30;;;;;;8331210;28;20287;-53
2022/01/28 16:03:39;;;;;;;;;;;15.80;34.30;;;;;;8331279;28;20379;-50
2022/01/28 16:07:39;;;;;;;;;;;15.80;34.30;;;;;;8330521;28;19952;-52
2022/01/28 16:11:54;;;;;;;;;;;15.80;34.30;;;;;;8330945;28;19921;-53
2022/01/28 16:19:57;;;;;;;;;;;15.80;34.40;;;;;;8330848;28;19949;-52
2022/01/28 16:23:58;;;;;;;;;;;15.80;34.40;;;;;;8330778;28;19917;-51
2022/01/28 16:27:59;;;;;;;;;;;15.80;34.30;;;;;;8330106;28;19933;-54
2022/01/28 16:31:59;;;;;;;;;;;15.80;34.30;;;;;;8330703;28;20008;-52
2022/01/28 16:36:00;;;;;;;;;;;15.80;34.30;;;;;;8312499;28;20329;-50
2022/01/28 16:40:07;;;;;;;;;;;15.80;34.30;;;;;;8328840;28;19959;-54
2022/01/28 16:44:13;;;;;;;;;;;15.90;34.30;;;;;;8336805;28;20263;-52
2022/01/28 16:48:14;;;;;;;;;;;15.90;34.30;;;;;;8331566;28;19928;-55
2022/01/28 16:52:15;;;;;;;;;;;15.90;34.20;;;;;;8329834;28;19913;-52
2022/01/28 16:56:16;;;;;;;;;;;15.90;34.30;;;;;;8329937;28;20389;-50
2022/01/28 17:00:21;;;;;;;;;;;15.90;34.20;;;;;;8329946;28;19918;-55
2022/01/28 17:04:21;;;;;;;;;;;15.90;34.20;;;;;;8329223;28;19975;-55
2022/01/28 17:08:22;;;;;;;;;;;15.90;34.20;;;;;;8329676;28;19970;-52
2022/01/28 17:16:23;;;;;;;;;;;15.90;34.20;;;;;;8329606;28;19987;-54
2022/01/28 17:20:24;;;;;;;;;;;15.90;34.20;;;;;;8329954;28;19917;-53
2022/01/28 17:24:24;;;;;;;;;;;15.90;34.20;;;;;;8329478;28;19921;-53
2022/01/28 17:28:25;;;;;;;;;;;15.90;34.20;;;;;;8334544;28;19927;-54
2022/01/28 17:32:25;;;;;;;;;;;15.90;34.20;;;;;;8336467;28;20453;-55
2022/01/28 17:36:26;;;;;;;;;;;15.90;34.80;;;;;;8335809;28;20333;-55
2022/01/28 17:40:32;;;;;;;;;;;15.90;34.20;;;;;;8335277;28;19996;-54
2022/01/28 17:44:32;;;;;;;;;;;15.90;34.20;;;;;;8336645;28;19924;-55
2022/01/28 17:48:33;;;;;;;;;;;15.90;34.20;;;;;;8335340;28;19917;-51
2022/01/28 17:52:34;;;;;;;;;;;15.90;34.20;;;;;;8335141;28;20289;-54
2022/01/28 17:56:34;;;;;;;;;;;15.90;34.20;;;;;;8335291;28;19984;-52
2022/01/28 18:00:35;;;;;;;;;;;15.80;34.20;;;;;;8335144;28;19917;-55
2022/01/28 18:04:35;;;;;;;;;;;15.90;34.20;;;;;;8334577;28;19979;-55
2022/01/28 18:08:36;;;;;;;;;;;15.80;34.10;;;;;;8335092;28;20444;-54
2022/01/28 18:12:36;;;;;;;;;;;15.90;34.20;;;;;;8334894;28;19972;-55
2022/01/28 18:16:37;;;;;;;;;;;15.90;34.20;;;;;;8334155;28;19971;-52
2022/01/28 18:20:37;;;;;;;;;;;15.80;34.20;;;;;;8334334;28;20005;-55
2022/01/28 18:24:38;;;;;;;;;;;15.80;34.20;;;;;;8334200;28;20403;-53
2022/01/28 18:28:40;;;;;;;;;;;15.80;34.20;;;;;;8333665;28;19960;-54
2022/01/28 18:32:40;;;;;;;;;;;15.80;34.20;;;;;;8334524;28;19996;-52
2022/01/28 18:36:41;;;;;;;;;;;15.80;34.20;;;;;;8333362;28;19917;-56
2022/01/28 18:40:43;;;;;;;;;;;15.80;34.20;;;;;;8333281;28;20389;-55
2022/01/28 18:44:46;;;;;;;;;;;15.80;34.20;;;;;;8333589;28;20267;-54
2022/01/28 18:48:46;;;;;;;;;;;15.80;34.20;;;;;;8333570;28;19917;-55
2022/01/28 18:52:47;;;;;;;;;;;15.80;34.20;;;;;;8333323;28;19924;-54
2022/01/28 18:56:48;;;;;;;;;;;15.80;34.20;;;;;;8333341;28;19971;-54
2022/01/28 19:00:52;;;;;;;;;;;15.80;34.20;;;;;;8333247;28;20329;-54
2022/01/28 19:04:53;;;;;;;;;;;15.80;34.20;;;;;;8332644;28;19931;-54
2022/01/28 19:08:53;;;;;;;;;;;15.80;34.20;;;;;;8333025;28;20358;-55
2022/01/28 19:12:54;;;;;;;;;;;15.80;34.20;;;;;;8334104;28;19944;-52
2022/01/28 19:16:54;;;;;;;;;;;15.80;34.20;;;;;;8334999;28;19924;-53
2022/01/28 19:20:55;;;;;;;;;;;15.80;34.20;;;;;;8333911;28;19984;-51
2022/01/28 19:24:55;;;;;;;;;;;15.80;34.20;;;;;;8333434;28;20012;-53
2022/01/28 19:28:56;;;;;;;;;;;15.80;34.20;;;;;;8333397;28;19917;-54
2022/01/28 19:32:56;;;;;;;;;;;15.80;34.20;;;;;;8332618;28;19924;-56
2022/01/28 19:36:57;;;;;;;;;;;15.80;34.20;;;;;;8331667;28;20040;-55
2022/01/28 19:40:57;;;;;;;;;;;15.80;34.20;;;;;;8331775;28;19971;-55
2022/01/28 19:44:58;;;;;;;;;;;15.80;34.10;;;;;;8332235;28;19932;-51
2022/01/28 19:49:06;;;;;;;;;;;15.80;34.10;;;;;;8330671;28;19970;-55
2022/01/28 19:53:07;;;;;;;;;;;15.80;34.10;;;;;;8331802;28;20285;-53
2022/01/28 19:57:08;;;;;;;;;;;15.80;34.10;;;;;;8331448;28;19917;-55
2022/01/28 20:01:08;;;;;;;;;;;15.80;34.10;;;;;;8330179;28;19967;-54
2022/01/28 20:05:09;;;;;;;;;;;15.80;34.10;;;;;;8331102;28;19947;-52
2022/01/28 20:09:09;;;;;;;;;;;15.80;34.10;;;;;;8331296;28;20354;-52
2022/01/28 20:13:10;;;;;;;;;;;15.80;34.10;;;;;;8330842;28;20070;-54
2022/01/28 20:17:10;;;;;;;;;;;15.70;34.00;;;;;;8330951;28;20000;-55
2022/01/28 20:21:11;;;;;;;;;;;15.80;34.10;;;;;;8330858;28;19917;-56
2022/01/28 20:25:11;;;;;;;;;;;15.70;34.00;;;;;;8330406;28;20362;-53
2022/01/28 20:29:12;;;;;;;;;;;15.70;34.00;;;;;;8330796;28;19917;-54
2022/01/28 20:33:13;;;;;;;;;;;15.70;34.00;;;;;;8330418;28;19917;-48
2022/01/28 20:37:13;;;;;;;;;;;15.70;34.00;;;;;;8330100;28;20914;-52
2022/01/28 20:41:13;;;;;;;;;;;15.70;34.00;;;;;;8330403;28;19917;-56
2022/01/28 20:45:14;;;;;;;;;;;15.70;34.00;;;;;;8330382;28;20322;-54
2022/01/28 20:49:15;;;;;;;;;;;15.70;34.00;;;;;;8329984;28;19952;-49
2022/01/28 20:53:18;;;;;;;;;;;15.70;34.00;;;;;;8330374;28;19917;-50
2022/01/28 20:57:19;;;;;;;;;;;15.80;34.00;;;;;;8330170;28;20419;-50
2022/01/28 21:01:19;;;;;;;;;;;15.80;34.00;;;;;;8333692;28;20001;-55
2022/01/28 21:05:20;;;;;;;;;;;15.80;33.90;;;;;;8336475;28;19936;-54
2022/01/28 21:09:20;;;;;;;;;;;15.80;33.90;;;;;;8336940;28;19924;-50
2022/01/28 21:13:21;;;;;;;;;;;15.80;33.90;;;;;;8336300;28;19917;-53
2022/01/28 21:17:21;;;;;;;;;;;15.80;33.80;;;;;;8336323;28;20385;-51
2022/01/28 21:21:22;;;;;;;;;;;15.90;33.80;;;;;;8336260;28;19925;-51
2022/01/28 21:25:24;;;;;;;;;;;15.90;33.80;;;;;;8335536;28;19932;-52
2022/01/28 21:29:24;;;;;;;;;;;15.90;33.80;;;;;;8336253;28;19940;-50
2022/01/28 21:33:25;;;;;;;;;;;15.90;33.80;;;;;;8335969;28;19925;-50
2022/01/28 21:37:25;;;;;;;;;;;15.90;33.80;;;;;;8335428;28;19967;-51
2022/01/28 21:41:26;;;;;;;;;;;15.90;33.80;;;;;;8335828;28;19918;-51
2022/01/28 21:45:26;;;;;;;;;;;15.90;33.70;;;;;;8335759;28;19925;-50
2022/01/28 21:49:27;;;;;;;;;;;15.80;33.70;;;;;;8335205;28;19996;-52
2022/01/28 21:53:27;;;;;;;;;;;15.80;33.70;;;;;;8335196;28;20012;-50
2022/01/28 21:57:28;;;;;;;;;;;15.80;33.70;;;;;;8335358;28;20355;-52
2022/01/28 22:01:28;;;;;;;;;;;15.80;33.70;;;;;;8334564;28;19924;-54
2022/01/28 22:05:29;;;;;;;;;;;15.80;33.70;;;;;;8334806;28;20023;-55
2022/01/28 22:09:29;;;;;;;;;;;15.80;33.70;;;;;;8334938;28;20007;-53
2022/01/28 22:13:30;;;;;;;;;;;15.80;33.70;;;;;;8332525;28;19920;-52
2022/01/28 22:17:30;;;;;;;;;;;15.70;33.70;;;;;;8334708;28;19953;-53
2022/01/28 22:21:31;;;;;;;;;;;15.70;33.70;;;;;;8334491;28;19924;-50
2022/01/28 22:25:32;;;;;;;;;;;15.80;33.70;;;;;;8333992;28;20007;-54
2022/01/28 22:29:33;;;;;;;;;;;15.70;33.70;;;;;;8334828;28;19957;-52
2022/01/28 22:33:33;;;;;;;;;;;15.70;33.70;;;;;;8334095;28;19917;-53
2022/01/28 22:37:34;;;;;;;;;;;15.70;33.70;;;;;;8333629;28;19917;-53
2022/01/28 22:41:35;;;;;;;;;;;15.70;33.70;;;;;;8334133;28;19917;-53
2022/01/28 22:45:35;;;;;;;;;;;15.70;33.70;;;;;;8333759;28;19932;-50
2022/01/28 22:49:36;;;;;;;;;;;15.70;33.70;;;;;;8333371;28;19921;-55
2022/01/28 22:53:36;;;;;;;;;;;15.70;33.70;;;;;;8333622;28;19921;-51
2022/01/28 22:57:37;;;;;;;;;;;15.70;33.70;;;;;;8333082;28;19924;-52
2022/01/28 23:01:37;;;;;;;;;;;15.60;33.70;;;;;;8325432;28;20012;-51
2022/01/28 23:05:38;;;;;;;;;;;15.70;33.70;;;;;;8300599;28;19941;-54
2022/01/28 23:09:42;;;;;;;;;;;15.70;33.70;;;;;;8300766;28;20396;-51
2022/01/28 23:13:42;;;;;;;;;;;15.70;33.70;;;;;;8299709;28;19964;-52
2022/01/28 23:17:43;;;;;;;;;;;15.70;33.70;;;;;;8300097;28;19918;-51
2022/01/28 23:21:43;;;;;;;;;;;15.70;33.70;;;;;;8300220;28;19922;-53
2022/01/28 23:25:45;;;;;;;;;;;15.70;33.70;;;;;;8298990;28;19933;-51
2022/01/28 23:29:47;;;;;;;;;;;15.70;33.70;;;;;;8300143;28;19972;-54
2022/01/28 23:33:47;;;;;;;;;;;15.70;33.60;;;;;;8299596;28;19925;-51
2022/01/28 23:37:48;;;;;;;;;;;15.70;33.60;;;;;;8299385;28;20358;-51
2022/01/28 23:41:48;;;;;;;;;;;15.70;33.60;;;;;;8299546;28;20390;-49
2022/01/28 23:45:49;;;;;;;;;;;15.80;33.60;;;;;;8299331;28;19930;-51
2022/01/28 23:49:49;;;;;;;;;;;15.80;33.60;;;;;;8281394;28;19948;-52
2022/01/28 23:53:50;;;;;;;;;;;15.80;33.60;;;;;;8299121;28;19922;-50
2022/01/28 23:57:50;;;;;;;;;;;15.80;33.60;;;;;;8299098;28;19928;-49
